sensor_id;sensor_type;location;lat;lon;timestamp;pressure;altitude;pressure_sealevel;temperature;humidity
51289;BME280;37372;52.294;5.152;2023-07-08T00:01:00;101742.56;;;19.64;58.96
51289;BME280;37372;52.294;5.152;2023-07-08T00:03:26;101738.06;;;19.58;58.76
51289;BME280;37372;52.294;5.152;2023-07-08T00:05:59;101736.34;;;19.52;59.79
51289;BME280;37372;52.294;5.152;2023-07-08T00:08:34;101731.88;;;19.51;59.47
51289;BME280;37372;52.294;5.152;2023-07-08T00:10:59;101729.31;;;19.44;59.87
51289;BME280;37372;52.294;5.152;2023-07-08T00:13:25;101723.75;;;19.39;60.16
51289;BME280;37372;52.294;5.152;2023-07-08T00:15:58;101728.94;;;19.30;61.34
51289;BME280;37372;52.294;5.152;2023-07-08T00:18:29;101724.72;;;19.23;61.04
51289;BME280;37372;52.294;5.152;2023-07-08T00:20:54;101718.56;;;19.15;61.92
51289;BME280;37372;52.294;5.152;2023-07-08T00:23:29;101723.81;;;19.12;62.42
51289;BME280;37372;52.294;5.152;2023-07-08T00:25:55;101720.47;;;19.10;62.11
51289;BME280;37372;52.294;5.152;2023-07-08T00:28:31;101727.03;;;18.99;62.72
51289;BME280;37372;52.294;5.152;2023-07-08T00:30:57;101718.94;;;18.92;63.58
51289;BME280;37372;52.294;5.152;2023-07-08T00:33:36;101719.97;;;18.86;63.44
51289;BME280;37372;52.294;5.152;2023-07-08T00:36:12;101726.38;;;18.81;64.02
51289;BME280;37372;52.294;5.152;2023-07-08T00:38:38;101723.16;;;18.67;64.24
51289;BME280;37372;52.294;5.152;2023-07-08T00:43:59;101707.81;;;18.65;64.78
51289;BME280;37372;52.294;5.152;2023-07-08T00:51:47;101702.19;;;18.55;65.39
51289;BME280;37372;52.294;5.152;2023-07-08T00:54:16;101701.03;;;18.51;65.01
51289;BME280;37372;52.294;5.152;2023-07-08T00:56:55;101701.03;;;18.51;65.58
51289;BME280;37372;52.294;5.152;2023-07-08T01:02:22;101708.47;;;18.45;65.82
51289;BME280;37372;52.294;5.152;2023-07-08T01:05:01;101703.97;;;18.39;66.48
51289;BME280;37372;52.294;5.152;2023-07-08T01:08:01;101706.16;;;18.37;66.59
51289;BME280;37372;52.294;5.152;2023-07-08T01:10:51;101698.34;;;18.34;66.75
51289;BME280;37372;52.294;5.152;2023-07-08T01:13:25;101692.78;;;18.34;66.27
51289;BME280;37372;52.294;5.152;2023-07-08T01:16:09;101692.28;;;18.37;66.06
51289;BME280;37372;52.294;5.152;2023-07-08T01:18:47;101691.31;;;18.26;67.04
51289;BME280;37372;52.294;5.152;2023-07-08T01:24:12;101686.53;;;18.22;67.07
51289;BME280;37372;52.294;5.152;2023-07-08T01:26:42;101678.81;;;18.24;66.52
51289;BME280;37372;52.294;5.152;2023-07-08T01:29:13;101673.25;;;18.24;66.41
51289;BME280;37372;52.294;5.152;2023-07-08T01:31:42;101674.34;;;18.23;66.88
51289;BME280;37372;52.294;5.152;2023-07-08T01:34:18;101683.25;;;18.25;66.46
51289;BME280;37372;52.294;5.152;2023-07-08T01:36:49;101674.66;;;18.26;65.99
51289;BME280;37372;52.294;5.152;2023-07-08T01:39:19;101671.59;;;18.23;66.46
51289;BME280;37372;52.294;5.152;2023-07-08T01:41:46;101665.13;;;18.17;67.24
51289;BME280;37372;52.294;5.152;2023-07-08T01:44:41;101662.34;;;18.17;66.95
51289;BME280;37372;52.294;5.152;2023-07-08T01:47:11;101664.09;;;18.23;66.37
51289;BME280;37372;52.294;5.152;2023-07-08T01:49:42;101654.31;;;18.21;66.67
51289;BME280;37372;52.294;5.152;2023-07-08T01:52:08;101667.09;;;18.22;66.72
51289;BME280;37372;52.294;5.152;2023-07-08T01:54:35;101664.81;;;18.13;66.84
51289;BME280;37372;52.294;5.152;2023-07-08T01:57:00;101668.16;;;18.16;66.79
51289;BME280;37372;52.294;5.152;2023-07-08T01:59:44;101660.09;;;18.14;66.80
51289;BME280;37372;52.294;5.152;2023-07-08T02:02:10;101659.19;;;18.08;67.42
51289;BME280;37372;52.294;5.152;2023-07-08T02:04:35;101650.28;;;18.06;67.07
51289;BME280;37372;52.294;5.152;2023-07-08T02:07:01;101648.03;;;18.03;67.97
51289;BME280;37372;52.294;5.152;2023-07-08T02:09:28;101642.50;;;18.03;67.29
51289;BME280;37372;52.294;5.152;2023-07-08T02:12:14;101641.06;;;18.01;67.93
51289;BME280;37372;52.294;5.152;2023-07-08T02:14:39;101639.66;;;17.98;67.94
51289;BME280;37372;52.294;5.152;2023-07-08T02:17:11;101640.78;;;18.02;66.97
51289;BME280;37372;52.294;5.152;2023-07-08T02:19:37;101638.56;;;17.99;67.40
51289;BME280;37372;52.294;5.152;2023-07-08T02:22:03;101634.66;;;18.00;67.18
51289;BME280;37372;52.294;5.152;2023-07-08T02:24:29;101627.13;;;17.96;67.51
51289;BME280;37372;52.294;5.152;2023-07-08T02:26:55;101614.34;;;17.95;67.31
51289;BME280;37372;52.294;5.152;2023-07-08T02:29:21;101620.44;;;17.92;67.96
51289;BME280;37372;52.294;5.152;2023-07-08T02:31:48;101623.44;;;17.90;67.58
51289;BME280;37372;52.294;5.152;2023-07-08T02:34:17;101627.09;;;17.91;67.77
51289;BME280;37372;52.294;5.152;2023-07-08T02:36:43;101623.97;;;17.87;67.91
51289;BME280;37372;52.294;5.152;2023-07-08T02:39:09;101618.09;;;17.83;68.08
51289;BME280;37372;52.294;5.152;2023-07-08T02:41:34;101616.69;;;17.81;68.17
51289;BME280;37372;52.294;5.152;2023-07-08T02:44:09;101608.38;;;17.81;68.05
51289;BME280;37372;52.294;5.152;2023-07-08T02:46:38;101613.91;;;17.81;67.80
51289;BME280;37372;52.294;5.152;2023-07-08T02:49:04;101615.03;;;17.80;68.23
51289;BME280;37372;52.294;5.152;2023-07-08T02:51:30;101613.00;;;17.75;68.48
51289;BME280;37372;52.294;5.152;2023-07-08T02:54:06;101607.47;;;17.75;67.71
51289;BME280;37372;52.294;5.152;2023-07-08T02:56:31;101609.94;;;17.72;68.24
51289;BME280;37372;52.294;5.152;2023-07-08T02:58:57;101613.19;;;17.69;68.19
51289;BME280;37372;52.294;5.152;2023-07-08T03:01:23;101616.78;;;17.69;67.62
51289;BME280;37372;52.294;5.152;2023-07-08T03:03:58;101602.34;;;17.67;67.71
51289;BME280;37372;52.294;5.152;2023-07-08T03:06:25;101606.50;;;17.65;68.22
51289;BME280;37372;52.294;5.152;2023-07-08T03:09:01;101609.78;;;17.62;68.70
51289;BME280;37372;52.294;5.152;2023-07-08T03:11:27;101606.94;;;17.56;69.18
51289;BME280;37372;52.294;5.152;2023-07-08T03:14:09;101611.06;;;17.54;69.55
51289;BME280;37372;52.294;5.152;2023-07-08T03:16:37;101607.41;;;17.48;69.22
51289;BME280;37372;52.294;5.152;2023-07-08T03:19:08;101599.06;;;17.48;69.34
51289;BME280;37372;52.294;5.152;2023-07-08T03:21:36;101595.72;;;17.46;69.25
51289;BME280;37372;52.294;5.152;2023-07-08T03:24:03;101611.00;;;17.49;69.93
51289;BME280;37372;52.294;5.152;2023-07-08T03:26:31;101609.53;;;17.41;69.71
51289;BME280;37372;52.294;5.152;2023-07-08T03:29:02;101614.53;;;17.44;69.53
51289;BME280;37372;52.294;5.152;2023-07-08T03:31:32;101603.72;;;17.43;69.61
51289;BME280;37372;52.294;5.152;2023-07-08T03:37:16;101609.19;;;17.38;69.69
51289;BME280;37372;52.294;5.152;2023-07-08T03:39:42;101608.53;;;17.30;69.91
51289;BME280;37372;52.294;5.152;2023-07-08T03:42:16;101612.69;;;17.28;70.84
51289;BME280;37372;52.294;5.152;2023-07-08T03:44:41;101612.59;;;17.23;70.91
51289;BME280;37372;52.294;5.152;2023-07-08T03:47:08;101611.50;;;17.24;70.48
51289;BME280;37372;52.294;5.152;2023-07-08T03:49:39;101619.00;;;17.23;70.98
51289;BME280;37372;52.294;5.152;2023-07-08T03:52:07;101613.72;;;17.22;70.54
51289;BME280;37372;52.294;5.152;2023-07-08T03:54:51;101618.50;;;17.26;70.55
51289;BME280;37372;52.294;5.152;2023-07-08T03:57:30;101615.38;;;17.23;71.31
51289;BME280;37372;52.294;5.152;2023-07-08T04:00:01;101625.91;;;17.21;71.09
51289;BME280;37372;52.294;5.152;2023-07-08T04:02:26;101614.53;;;17.22;71.05
51289;BME280;37372;52.294;5.152;2023-07-08T04:04:52;101615.38;;;17.23;71.06
51289;BME280;37372;52.294;5.152;2023-07-08T04:07:17;101622.53;;;17.19;70.60
51289;BME280;37372;52.294;5.152;2023-07-08T04:09:43;101620.09;;;17.22;71.05
51289;BME280;37372;52.294;5.152;2023-07-08T04:12:15;101626.47;;;17.23;70.62
51289;BME280;37372;52.294;5.152;2023-07-08T04:14:45;101620.41;;;17.26;70.81
51289;BME280;37372;52.294;5.152;2023-07-08T04:17:11;101617.59;;;17.21;70.95
51289;BME280;37372;52.294;5.152;2023-07-08T04:19:40;101618.16;;;17.23;71.68
51289;BME280;37372;52.294;5.152;2023-07-08T04:22:27;101620.00;;;17.17;70.89
51289;BME280;37372;52.294;5.152;2023-07-08T04:24:56;101616.47;;;17.22;71.07
51289;BME280;37372;52.294;5.152;2023-07-08T04:27:22;101624.53;;;17.23;71.34
51289;BME280;37372;52.294;5.152;2023-07-08T04:29:50;101616.47;;;17.22;70.84
51289;BME280;37372;52.294;5.152;2023-07-08T04:32:20;101615.94;;;17.25;70.53
51289;BME280;37372;52.294;5.152;2023-07-08T04:34:58;101609.75;;;17.18;71.95
51289;BME280;37372;52.294;5.152;2023-07-08T04:37:25;101610.94;;;17.22;70.30
51289;BME280;37372;52.294;5.152;2023-07-08T04:39:54;101610.41;;;17.25;70.53
51289;BME280;37372;52.294;5.152;2023-07-08T04:42:19;101606.53;;;17.26;71.26
51289;BME280;37372;52.294;5.152;2023-07-08T04:44:57;101619.34;;;17.27;71.21
51289;BME280;37372;52.294;5.152;2023-07-08T04:47:26;101627.13;;;17.30;71.61
51289;BME280;37372;52.294;5.152;2023-07-08T04:50:04;101624.34;;;17.30;72.02
51289;BME280;37372;52.294;5.152;2023-07-08T04:52:39;101619.63;;;17.30;70.67
51289;BME280;37372;52.294;5.152;2023-07-08T04:55:05;101621.31;;;17.31;71.01
51289;BME280;37372;52.294;5.152;2023-07-08T04:57:30;101613.31;;;17.35;71.49
51289;BME280;37372;52.294;5.152;2023-07-08T04:59:57;101620.53;;;17.36;71.42
51289;BME280;37372;52.294;5.152;2023-07-08T05:02:22;101621.72;;;17.40;71.50
51289;BME280;37372;52.294;5.152;2023-07-08T05:04:57;101625.59;;;17.39;70.59
51289;BME280;37372;52.294;5.152;2023-07-08T05:07:27;101617.66;;;17.48;70.23
51289;BME280;37372;52.294;5.152;2023-07-08T05:10:01;101619.06;;;17.50;68.68
51289;BME280;37372;52.294;5.152;2023-07-08T05:12:27;101619.97;;;17.56;69.58
51289;BME280;37372;52.294;5.152;2023-07-08T05:15:01;101618.88;;;17.57;69.77
51289;BME280;37372;52.294;5.152;2023-07-08T05:17:28;101618.88;;;17.57;70.84
51289;BME280;37372;52.294;5.152;2023-07-08T05:20:08;101617.84;;;17.63;69.54
51289;BME280;37372;52.294;5.152;2023-07-08T05:22:35;101612.91;;;17.70;69.04
51289;BME280;37372;52.294;5.152;2023-07-08T05:25:08;101612.75;;;17.77;69.47
51289;BME280;37372;52.294;5.152;2023-07-08T05:27:34;101601.78;;;17.87;68.92
51289;BME280;37372;52.294;5.152;2023-07-08T05:30:05;101608.53;;;17.96;68.21
51289;BME280;37372;52.294;5.152;2023-07-08T05:32:32;101608.06;;;18.04;67.25
51289;BME280;37372;52.294;5.152;2023-07-08T05:35:10;101612.88;;;18.14;67.46
51289;BME280;37372;52.294;5.152;2023-07-08T05:37:36;101611.03;;;18.25;67.80
51289;BME280;37372;52.294;5.152;2023-07-08T05:40:02;101622.50;;;18.33;67.91
51289;BME280;37372;52.294;5.152;2023-07-08T05:42:32;101617.78;;;18.34;68.34
51289;BME280;37372;52.294;5.152;2023-07-08T05:45:07;101606.22;;;18.47;67.38
51289;BME280;37372;52.294;5.152;2023-07-08T05:47:32;101603.53;;;18.57;65.57
51289;BME280;37372;52.294;5.152;2023-07-08T05:50:06;101604.00;;;18.76;65.30
51289;BME280;37372;52.294;5.152;2023-07-08T05:52:32;101601.53;;;18.85;65.74
51289;BME280;37372;52.294;5.152;2023-07-08T05:55:10;101601.91;;;18.99;64.10
51289;BME280;37372;52.294;5.152;2023-07-08T05:57:38;101613.88;;;18.99;63.49
51289;BME280;37372;52.294;5.152;2023-07-08T06:00:08;101616.97;;;19.03;63.69
51289;BME280;37372;52.294;5.152;2023-07-08T06:02:50;101610.59;;;19.07;64.23
51289;BME280;37372;52.294;5.152;2023-07-08T06:05:16;101618.19;;;19.22;64.16
51289;BME280;37372;52.294;5.152;2023-07-08T06:07:43;101622.13;;;19.31;63.55
51289;BME280;37372;52.294;5.152;2023-07-08T06:10:09;101619.13;;;19.43;63.45
51289;BME280;37372;52.294;5.152;2023-07-08T06:12:34;101613.28;;;19.44;62.90
51289;BME280;37372;52.294;5.152;2023-07-08T06:15:16;101616.19;;;19.60;63.46
51289;BME280;37372;52.294;5.152;2023-07-08T06:17:42;101610.63;;;19.65;62.00
51289;BME280;37372;52.294;5.152;2023-07-08T06:20:18;101615.38;;;19.74;61.05
51289;BME280;37372;52.294;5.152;2023-07-08T06:22:43;101612.63;;;19.80;61.06
51289;BME280;37372;52.294;5.152;2023-07-08T06:25:14;101615.72;;;19.98;61.92
51289;BME280;37372;52.294;5.152;2023-07-08T06:27:40;101608.75;;;20.01;60.91
51289;BME280;37372;52.294;5.152;2023-07-08T06:30:21;101607.66;;;20.07;61.68
51289;BME280;37372;52.294;5.152;2023-07-08T06:32:46;101613.00;;;20.24;61.35
51289;BME280;37372;52.294;5.152;2023-07-08T06:35:19;101612.69;;;20.20;60.37
51289;BME280;37372;52.294;5.152;2023-07-08T06:37:48;101616.34;;;20.31;59.99
51289;BME280;37372;52.294;5.152;2023-07-08T06:40:21;101613.00;;;20.39;59.49
51289;BME280;37372;52.294;5.152;2023-07-08T06:42:46;101626.69;;;20.56;60.15
51289;BME280;37372;52.294;5.152;2023-07-08T06:45:18;101620.00;;;20.52;59.04
51289;BME280;37372;52.294;5.152;2023-07-08T06:47:43;101615.81;;;20.60;59.25
51289;BME280;37372;52.294;5.152;2023-07-08T06:50:25;101617.19;;;20.72;60.69
51289;BME280;37372;52.294;5.152;2023-07-08T06:52:51;101623.06;;;20.76;59.58
51289;BME280;37372;52.294;5.152;2023-07-08T06:55:20;101614.41;;;20.77;59.57
51289;BME280;37372;52.294;5.152;2023-07-08T06:57:45;101616.91;;;20.84;60.06
51289;BME280;37372;52.294;5.152;2023-07-08T07:00:27;101611.88;;;20.91;59.42
51289;BME280;37372;52.294;5.152;2023-07-08T07:02:52;101614.38;;;21.03;58.87
51289;BME280;37372;52.294;5.152;2023-07-08T07:05:24;101614.31;;;21.18;58.99
51289;BME280;37372;52.294;5.152;2023-07-08T07:07:51;101617.13;;;21.33;58.31
51289;BME280;37372;52.294;5.152;2023-07-08T07:10:32;101614.88;;;21.30;58.14
51289;BME280;37372;52.294;5.152;2023-07-08T07:13:02;101621.81;;;21.38;57.91
51289;BME280;37372;52.294;5.152;2023-07-08T07:15:34;101622.69;;;21.33;57.55
51289;BME280;37372;52.294;5.152;2023-07-08T07:18:00;101619.31;;;21.47;57.78
51289;BME280;37372;52.294;5.152;2023-07-08T07:20:27;101610.31;;;21.55;58.39
51289;BME280;37372;52.294;5.152;2023-07-08T07:22:53;101605.53;;;21.66;57.70
51289;BME280;37372;52.294;5.152;2023-07-08T07:25:26;101608.66;;;21.59;57.72
51289;BME280;37372;52.294;5.152;2023-07-08T07:27:52;101601.91;;;21.65;57.73
51289;BME280;37372;52.294;5.152;2023-07-08T07:30:26;101609.41;;;21.70;58.50
51289;BME280;37372;52.294;5.152;2023-07-08T07:32:51;101609.06;;;21.81;58.40
51289;BME280;37372;52.294;5.152;2023-07-08T07:35:29;101611.03;;;21.81;57.52
51289;BME280;37372;52.294;5.152;2023-07-08T07:37:55;101612.66;;;21.92;57.63
51289;BME280;37372;52.294;5.152;2023-07-08T07:40:30;101612.28;;;22.09;58.57
51289;BME280;37372;52.294;5.152;2023-07-08T07:42:56;101601.97;;;22.09;58.32
51289;BME280;37372;52.294;5.152;2023-07-08T07:45:30;101610.56;;;22.18;56.71
51289;BME280;37372;52.294;5.152;2023-07-08T07:47:55;101609.38;;;22.29;57.71
51289;BME280;37372;52.294;5.152;2023-07-08T07:50:31;101602.06;;;22.33;57.17
51289;BME280;37372;52.294;5.152;2023-07-08T07:52:56;101606.75;;;22.43;57.93
51289;BME280;37372;52.294;5.152;2023-07-08T07:55:30;101610.44;;;22.33;58.15
51289;BME280;37372;52.294;5.152;2023-07-08T07:57:56;101606.47;;;22.39;59.14
51289;BME280;37372;52.294;5.152;2023-07-08T08:00:33;101602.03;;;22.38;56.43
51289;BME280;37372;52.294;5.152;2023-07-08T08:02:58;101593.41;;;22.35;56.09
51289;BME280;37372;52.294;5.152;2023-07-08T08:05:25;101592.81;;;22.38;57.34
51289;BME280;37372;52.294;5.152;2023-07-08T08:07:52;101598.84;;;22.50;56.00
51289;BME280;37372;52.294;5.152;2023-07-08T08:10:35;101596.47;;;22.67;57.18
51289;BME280;37372;52.294;5.152;2023-07-08T08:13:02;101589.88;;;22.82;55.46
51289;BME280;37372;52.294;5.152;2023-07-08T08:15:34;101585.41;;;22.86;55.90
51289;BME280;37372;52.294;5.152;2023-07-08T08:17:59;101583.69;;;22.85;55.56
51289;BME280;37372;52.294;5.152;2023-07-08T08:20:36;101586.06;;;23.02;56.78
51289;BME280;37372;52.294;5.152;2023-07-08T08:23:04;101590.84;;;23.02;55.35
51289;BME280;37372;52.294;5.152;2023-07-08T08:25:37;101587.91;;;23.12;55.07
51289;BME280;37372;52.294;5.152;2023-07-08T08:28:03;101585.59;;;23.19;53.88
51289;BME280;37372;52.294;5.152;2023-07-08T08:30:49;101589.72;;;23.27;53.12
51289;BME280;37372;52.294;5.152;2023-07-08T08:33:17;101592.88;;;23.20;53.04
51289;BME280;37372;52.294;5.152;2023-07-08T08:35:43;101597.50;;;23.30;54.63
51289;BME280;37372;52.294;5.152;2023-07-08T08:38:09;101600.84;;;23.32;54.77
51289;BME280;37372;52.294;5.152;2023-07-08T08:40:40;101600.88;;;23.50;55.49
51289;BME280;37372;52.294;5.152;2023-07-08T08:43:12;101608.31;;;23.65;55.03
51289;BME280;37372;52.294;5.152;2023-07-08T08:48:28;101605.38;;;23.51;52.69
51289;BME280;37372;52.294;5.152;2023-07-08T08:50:59;101601.63;;;23.61;52.71
51289;BME280;37372;52.294;5.152;2023-07-08T08:53:32;101607.22;;;23.61;53.70
51289;BME280;37372;52.294;5.152;2023-07-08T08:56:15;101616.34;;;23.72;53.51
51289;BME280;37372;52.294;5.152;2023-07-08T09:01:34;101615.38;;;24.00;54.09
51289;BME280;37372;52.294;5.152;2023-07-08T09:04:09;101620.44;;;24.17;53.47
51289;BME280;37372;52.294;5.152;2023-07-08T09:06:38;101618.69;;;24.21;53.39
51289;BME280;37372;52.294;5.152;2023-07-08T09:09:20;101615.06;;;24.21;52.20
51289;BME280;37372;52.294;5.152;2023-07-08T09:12:03;101619.69;;;24.12;52.86
51289;BME280;37372;52.294;5.152;2023-07-08T09:14:33;101615.19;;;24.35;53.31
51289;BME280;37372;52.294;5.152;2023-07-08T09:20:25;101613.47;;;24.34;51.68
51289;BME280;37372;52.294;5.152;2023-07-08T09:27:59;101599.38;;;24.71;51.63
51289;BME280;37372;52.294;5.152;2023-07-08T09:30:26;101611.09;;;24.59;50.48
51289;BME280;37372;52.294;5.152;2023-07-08T09:32:54;101601.28;;;24.76;50.02
51289;BME280;37372;52.294;5.152;2023-07-08T09:35:47;101606.88;;;24.76;51.07
51289;BME280;37372;52.294;5.152;2023-07-08T09:38:18;101608.16;;;24.83;50.77
51289;BME280;37372;52.294;5.152;2023-07-08T09:40:53;101606.56;;;24.77;50.54
51289;BME280;37372;52.294;5.152;2023-07-08T09:43:35;101603.59;;;24.88;51.02
51289;BME280;37372;52.294;5.152;2023-07-08T09:46:03;101604.06;;;25.08;51.93
51289;BME280;37372;52.294;5.152;2023-07-08T09:48:35;101605.94;;;25.27;50.59
51289;BME280;37372;52.294;5.152;2023-07-08T09:51:02;101605.94;;;25.41;50.51
51289;BME280;37372;52.294;5.152;2023-07-08T09:53:28;101607.50;;;25.47;49.71
51289;BME280;37372;52.294;5.152;2023-07-08T09:55:59;101598.34;;;25.41;46.94
51289;BME280;37372;52.294;5.152;2023-07-08T09:58:31;101612.91;;;25.43;47.10
51289;BME280;37372;52.294;5.152;2023-07-08T10:01:08;101608.03;;;25.49;47.88
51289;BME280;37372;52.294;5.152;2023-07-08T10:03:35;101607.06;;;25.67;47.24
51289;BME280;37372;52.294;5.152;2023-07-08T10:06:36;101604.69;;;25.60;48.53
51289;BME280;37372;52.294;5.152;2023-07-08T10:09:09;101605.50;;;25.61;48.22
51289;BME280;37372;52.294;5.152;2023-07-08T10:11:58;101614.28;;;25.73;47.69
51289;BME280;37372;52.294;5.152;2023-07-08T10:14:30;101615.06;;;25.87;47.99
51289;BME280;37372;52.294;5.152;2023-07-08T10:16:58;101619.00;;;26.00;47.76
51289;BME280;37372;52.294;5.152;2023-07-08T10:19:27;101620.66;;;26.15;45.35
51289;BME280;37372;52.294;5.152;2023-07-08T10:24:47;101619.06;;;26.23;45.69
51289;BME280;37372;52.294;5.152;2023-07-08T10:27:39;101620.00;;;26.18;45.25
51289;BME280;37372;52.294;5.152;2023-07-08T10:32:41;101610.56;;;26.36;46.22
51289;BME280;37372;52.294;5.152;2023-07-08T10:35:18;101605.03;;;26.45;46.59
51289;BME280;37372;52.294;5.152;2023-07-08T10:38:10;101605.22;;;26.49;45.70
51289;BME280;37372;52.294;5.152;2023-07-08T10:40:54;101599.78;;;26.52;45.44
51289;BME280;37372;52.294;5.152;2023-07-08T10:52:14;101605.03;;;26.45;46.29
51289;BME280;37372;52.294;5.152;2023-07-08T11:00:49;101597.59;;;26.71;45.34
51289;BME280;37372;52.294;5.152;2023-07-08T11:04:03;101600.25;;;26.77;45.04
51289;BME280;37372;52.294;5.152;2023-07-08T11:06:58;101593.72;;;26.90;46.29
51289;BME280;37372;52.294;5.152;2023-07-08T11:10:04;101590.91;;;26.90;46.11
51289;BME280;37372;52.294;5.152;2023-07-08T11:12:47;101595.25;;;26.96;44.01
51289;BME280;37372;52.294;5.152;2023-07-08T11:15:22;101584.31;;;27.25;44.02
51289;BME280;37372;52.294;5.152;2023-07-08T11:18:02;101584.88;;;27.45;43.24
51289;BME280;37372;52.294;5.152;2023-07-08T11:23:56;101576.50;;;27.22;43.28
51289;BME280;37372;52.294;5.152;2023-07-08T11:26:42;101584.88;;;27.53;43.41
51289;BME280;37372;52.294;5.152;2023-07-08T11:29:22;101585.91;;;27.58;43.48
51289;BME280;37372;52.294;5.152;2023-07-08T11:31:51;101582.59;;;27.64;43.56
51289;BME280;37372;52.294;5.152;2023-07-08T11:34:21;101582.41;;;27.61;43.44
51289;BME280;37372;52.294;5.152;2023-07-08T11:36:48;101578.59;;;27.57;43.88
51289;BME280;37372;52.294;5.152;2023-07-08T11:39:45;101579.25;;;27.62;43.92
51289;BME280;37372;52.294;5.152;2023-07-08T11:44:56;101569.72;;;27.98;43.34
51289;BME280;37372;52.294;5.152;2023-07-08T11:47:39;101581.53;;;28.09;42.50
51289;BME280;37372;52.294;5.152;2023-07-08T11:50:28;101572.53;;;28.24;42.63
51289;BME280;37372;52.294;5.152;2023-07-08T11:53:00;101574.38;;;28.28;43.20
51289;BME280;37372;52.294;5.152;2023-07-08T11:55:59;101572.03;;;28.13;42.31
51289;BME280;37372;52.294;5.152;2023-07-08T12:01:32;101571.72;;;28.23;41.45
51289;BME280;37372;52.294;5.152;2023-07-08T12:09:22;101573.19;;;28.29;42.19
51289;BME280;37372;52.294;5.152;2023-07-08T12:12:02;101566.91;;;28.41;41.54
51289;BME280;37372;52.294;5.152;2023-07-08T12:14:29;101565.53;;;28.65;42.14
51289;BME280;37372;52.294;5.152;2023-07-08T12:17:21;101562.38;;;28.66;42.15
51289;BME280;37372;52.294;5.152;2023-07-08T12:19:47;101549.84;;;28.84;38.13
51289;BME280;37372;52.294;5.152;2023-07-08T12:22:14;101552.50;;;28.98;37.35
51289;BME280;37372;52.294;5.152;2023-07-08T12:24:41;101556.22;;;29.20;37.39
51289;BME280;37372;52.294;5.152;2023-07-08T12:27:09;101554.88;;;29.17;36.45
51289;BME280;37372;52.294;5.152;2023-07-08T12:29:38;101554.41;;;29.15;35.78
51289;BME280;37372;52.294;5.152;2023-07-08T12:32:04;101547.28;;;29.09;38.13
51289;BME280;37372;52.294;5.152;2023-07-08T12:34:30;101542.81;;;29.08;35.72
51289;BME280;37372;52.294;5.152;2023-07-08T12:36:57;101535.41;;;28.95;36.14
51289;BME280;37372;52.294;5.152;2023-07-08T12:39:23;101541.88;;;28.95;36.74
51289;BME280;37372;52.294;5.152;2023-07-08T12:41:52;101535.22;;;29.00;37.92
51289;BME280;37372;52.294;5.152;2023-07-08T12:44:23;101538.97;;;29.12;38.39
51289;BME280;37372;52.294;5.152;2023-07-08T12:46:55;101541.75;;;29.21;36.62
51289;BME280;37372;52.294;5.152;2023-07-08T12:49:21;101537.75;;;29.22;35.60
51289;BME280;37372;52.294;5.152;2023-07-08T12:51:49;101532.44;;;29.50;36.57
51289;BME280;37372;52.294;5.152;2023-07-08T12:54:15;101539.16;;;29.66;35.98
51289;BME280;37372;52.294;5.152;2023-07-08T12:56:45;101538.13;;;29.71;35.63
51289;BME280;37372;52.294;5.152;2023-07-08T12:59:18;101534.22;;;29.63;35.02
51289;BME280;37372;52.294;5.152;2023-07-08T13:01:46;101536.75;;;29.56;37.32
51289;BME280;37372;52.294;5.152;2023-07-08T13:04:13;101530.06;;;29.82;34.72
51289;BME280;37372;52.294;5.152;2023-07-08T13:06:40;101532.00;;;29.69;34.89
51289;BME280;37372;52.294;5.152;2023-07-08T13:09:29;101527.53;;;29.89;36.83
51289;BME280;37372;52.294;5.152;2023-07-08T13:12:03;101528.63;;;29.97;35.22
51289;BME280;37372;52.294;5.152;2023-07-08T13:14:31;101530.97;;;30.15;34.20
51289;BME280;37372;52.294;5.152;2023-07-08T13:16:58;101528.75;;;30.21;34.33
51289;BME280;37372;52.294;5.152;2023-07-08T13:19:25;101524.59;;;30.18;33.91
51289;BME280;37372;52.294;5.152;2023-07-08T13:21:51;101527.53;;;30.10;36.00
51289;BME280;37372;52.294;5.152;2023-07-08T13:24:17;101532.84;;;29.90;34.71
51289;BME280;37372;52.294;5.152;2023-07-08T13:26:46;101525.16;;;30.12;34.46
51289;BME280;37372;52.294;5.152;2023-07-08T13:29:16;101521.88;;;30.10;34.57
51289;BME280;37372;52.294;5.152;2023-07-08T13:31:53;101523.91;;;30.01;34.01
51289;BME280;37372;52.294;5.152;2023-07-08T13:34:26;101522.53;;;30.07;34.78
51289;BME280;37372;52.294;5.152;2023-07-08T13:36:55;101526.00;;;30.12;34.02
51289;BME280;37372;52.294;5.152;2023-07-08T13:39:32;101523.22;;;30.25;33.72
51289;BME280;37372;52.294;5.152;2023-07-08T13:42:00;101521.81;;;30.31;34.23
51289;BME280;37372;52.294;5.152;2023-07-08T13:44:28;101529.53;;;30.42;33.43
51289;BME280;37372;52.294;5.152;2023-07-08T13:46:58;101521.50;;;30.44;32.87
51289;BME280;37372;52.294;5.152;2023-07-08T13:49:44;101522.88;;;30.26;31.21
51289;BME280;37372;52.294;5.152;2023-07-08T13:54:49;101520.03;;;30.26;33.03
51289;BME280;37372;52.294;5.152;2023-07-08T13:57:23;101515.91;;;30.24;32.59
51289;BME280;37372;52.294;5.152;2023-07-08T13:59:50;101521.16;;;30.34;33.43
51289;BME280;37372;52.294;5.152;2023-07-08T14:02:21;101511.59;;;30.38;32.46
51289;BME280;37372;52.294;5.152;2023-07-08T14:04:49;101518.00;;;30.47;33.72
51289;BME280;37372;52.294;5.152;2023-07-08T14:07:33;101510.91;;;30.41;32.02
51289;BME280;37372;52.294;5.152;2023-07-08T14:09:59;101519.19;;;30.46;34.10
51289;BME280;37372;52.294;5.152;2023-07-08T14:12:26;101519.53;;;30.57;32.15
51289;BME280;37372;52.294;5.152;2023-07-08T14:14:51;101524.28;;;30.65;32.61
51289;BME280;37372;52.294;5.152;2023-07-08T14:17:24;101512.28;;;30.68;31.90
51289;BME280;37372;52.294;5.152;2023-07-08T14:19:52;101526.56;;;30.72;32.12
51289;BME280;37372;52.294;5.152;2023-07-08T14:22:27;101526.34;;;31.01;31.08